createdAt,value
2022-11-04T00:00:00.368Z,12.67
2022-11-04T00:01:00.370Z,12.70
2022-11-04T00:02:00.352Z,12.71
2022-11-04T00:03:00.279Z,12.71
2022-11-04T00:04:00.280Z,12.70
2022-11-04T00:05:00.300Z,12.69
2022-11-04T00:06:00.259Z,12.67
2022-11-04T00:07:00.249Z,12.64
2022-11-04T00:08:00.229Z,12.62
2022-11-04T00:09:00.219Z,12.60
2022-11-04T00:10:00.247Z,12.57
2022-11-04T00:11:00.199Z,12.56
2022-11-04T00:12:00.190Z,12.54
2022-11-04T00:13:00.176Z,12.54
2022-11-04T00:14:00.167Z,12.51
2022-11-04T00:15:00.156Z,12.49
2022-11-04T00:16:00.168Z,12.48
2022-11-04T00:17:00.137Z,12.46
2022-11-04T00:18:00.128Z,12.44
2022-11-04T00:19:00.127Z,12.44
2022-11-04T00:20:00.119Z,12.39
2022-11-04T00:21:00.117Z,12.31
2022-11-04T00:22:00.097Z,12.27
2022-11-04T00:23:00.100Z,12.19
2022-11-04T00:24:00.059Z,12.15
2022-11-04T00:25:00.039Z,12.11
2022-11-04T00:26:00.030Z,12.06
2022-11-04T00:27:00.049Z,12.06
2022-11-04T00:28:00.008Z,12.04
2022-11-04T00:28:59.990Z,11.99
2022-11-04T00:30:00.005Z,11.97
2022-11-04T00:30:59.980Z,11.90
2022-11-04T00:31:59.989Z,11.89
2022-11-04T00:32:59.951Z,11.86
2022-11-04T00:33:59.950Z,11.83
2022-11-04T00:34:59.929Z,11.83
2022-11-04T00:35:59.920Z,11.77
2022-11-04T00:36:59.948Z,11.74
2022-11-04T00:37:59.898Z,11.71
2022-11-04T00:38:59.891Z,11.70
2022-11-04T00:39:59.871Z,11.68
2022-11-04T00:40:59.866Z,11.65
2022-11-04T00:41:59.880Z,11.64
2022-11-04T00:42:59.839Z,11.61
2022-11-04T00:43:59.832Z,11.57
2022-11-04T00:44:59.830Z,11.56
2022-11-04T00:45:59.813Z,11.56
2022-11-04T00:46:59.813Z,11.53
2022-11-04T00:47:59.815Z,11.50
2022-11-04T00:48:59.777Z,11.47
2022-11-04T00:49:59.763Z,11.46
2022-11-04T00:50:59.800Z,11.44
2022-11-04T00:51:59.771Z,11.43
2022-11-04T00:52:59.733Z,11.43
2022-11-04T00:53:59.721Z,11.43
2022-11-04T00:54:59.705Z,11.41
2022-11-04T00:55:59.703Z,11.43
2022-11-04T00:56:59.712Z,11.41
2022-11-04T00:57:59.675Z,11.41
2022-11-04T00:58:59.662Z,11.41
2022-11-04T00:59:59.673Z,11.41
2022-11-04T01:00:59.697Z,11.41
2022-11-04T01:01:59.686Z,11.41
2022-11-04T01:02:59.613Z,11.39
2022-11-04T01:03:59.613Z,11.43
2022-11-04T01:04:59.601Z,11.41
2022-11-04T01:05:59.615Z,11.43
2022-11-04T01:06:59.578Z,11.43
2022-11-04T01:07:59.572Z,11.44
2022-11-04T01:08:59.547Z,11.44
2022-11-04T01:09:59.540Z,11.44
2022-11-04T01:10:59.545Z,11.47
2022-11-04T01:11:59.546Z,11.46
2022-11-04T01:12:59.515Z,11.46
2022-11-04T01:13:59.499Z,11.43
2022-11-04T01:14:59.487Z,11.43
2022-11-04T01:15:59.476Z,11.43
2022-11-04T01:16:59.463Z,11.41
2022-11-04T01:17:59.475Z,11.41
2022-11-04T01:18:59.433Z,11.41
2022-11-04T01:19:59.447Z,11.41
2022-11-04T01:20:59.414Z,11.41
2022-11-04T01:21:59.427Z,11.43
2022-11-04T01:22:59.393Z,11.41
2022-11-04T01:23:59.376Z,11.41
2022-11-04T01:24:59.365Z,11.43
2022-11-04T01:25:59.364Z,11.43
2022-11-04T01:26:59.354Z,11.39
2022-11-04T01:27:59.363Z,11.39
2022-11-04T01:28:59.347Z,11.39
2022-11-04T01:29:59.314Z,11.39
2022-11-04T01:30:59.309Z,11.36
2022-11-04T01:31:59.295Z,11.35
2022-11-04T01:32:59.275Z,11.35
2022-11-04T01:33:59.269Z,11.36
2022-11-04T01:34:59.277Z,11.36
2022-11-04T01:35:59.246Z,11.36
2022-11-04T01:36:59.237Z,11.36
2022-11-04T01:37:59.225Z,11.38
2022-11-04T01:38:59.207Z,11.38
2022-11-04T01:39:59.232Z,11.36
2022-11-04T01:40:59.186Z,11.36
2022-11-04T01:41:59.226Z,11.38
2022-11-04T01:42:59.165Z,11.35
2022-11-04T01:43:59.160Z,11.36
2022-11-04T01:44:59.149Z,11.34
2022-11-04T01:45:59.157Z,11.36
2022-11-04T01:46:59.124Z,11.35
2022-11-04T01:47:59.111Z,11.34
2022-11-04T01:48:59.097Z,11.34
2022-11-04T01:49:59.107Z,11.32
2022-11-04T01:50:59.078Z,11.29
2022-11-04T01:51:59.069Z,11.27
2022-11-04T01:52:59.050Z,11.25
2022-11-04T01:53:59.047Z,11.25
2022-11-04T01:54:59.028Z,11.21
2022-11-04T01:55:59.039Z,11.17
2022-11-04T01:56:59.009Z,11.17
2022-11-04T01:57:59.005Z,11.16
2022-11-04T01:58:59.008Z,11.16
2022-11-04T01:59:58.969Z,11.17
2022-11-04T02:00:58.994Z,11.17
2022-11-04T02:01:59.061Z,11.17
2022-11-04T02:02:58.943Z,11.17
2022-11-04T02:03:58.931Z,11.17
2022-11-04T02:04:58.931Z,11.19
2022-11-04T02:05:58.900Z,11.20
2022-11-04T02:06:58.918Z,11.21
2022-11-04T02:07:58.879Z,11.21
2022-11-04T02:08:58.892Z,11.24
2022-11-04T02:09:58.890Z,11.21
2022-11-04T02:10:58.852Z,11.20
2022-11-04T02:11:58.841Z,11.14
2022-11-04T02:12:58.847Z,11.16
2022-11-04T02:13:58.821Z,11.13
2022-11-04T02:14:58.824Z,11.13
2022-11-04T02:15:58.799Z,11.13
2022-11-04T02:16:58.787Z,11.11
2022-11-04T02:17:58.793Z,11.09
2022-11-04T02:18:58.752Z,11.02
2022-11-04T02:19:58.770Z,10.99
2022-11-04T02:20:58.731Z,10.98
2022-11-04T02:21:58.731Z,10.95
2022-11-04T02:22:58.714Z,10.92
2022-11-04T02:23:58.707Z,10.89
2022-11-04T02:24:58.714Z,10.89
2022-11-04T02:25:58.682Z,10.91
2022-11-04T02:26:58.681Z,10.89
2022-11-04T02:27:58.661Z,10.88
2022-11-04T02:28:58.642Z,10.86
2022-11-04T02:29:58.662Z,10.88
2022-11-04T02:30:58.624Z,10.88
2022-11-04T02:31:58.613Z,10.84
2022-11-04T02:32:58.603Z,10.81
2022-11-04T02:33:58.592Z,10.81
2022-11-04T02:34:58.593Z,10.81
2022-11-04T02:35:58.569Z,10.81
2022-11-04T02:36:58.578Z,10.83
2022-11-04T02:37:58.578Z,10.86
2022-11-04T02:38:58.533Z,10.86
2022-11-04T02:39:58.552Z,10.86
2022-11-04T02:40:58.512Z,10.88
2022-11-04T02:41:58.510Z,10.88
2022-11-04T02:42:58.483Z,10.91
2022-11-04T02:43:58.482Z,10.91
2022-11-04T02:44:58.483Z,10.94
2022-11-04T02:45:58.461Z,10.94
2022-11-04T02:46:58.452Z,10.98
2022-11-04T02:47:58.442Z,10.98
2022-11-04T02:48:58.420Z,10.99
2022-11-04T02:49:58.435Z,10.98
2022-11-04T02:50:58.394Z,10.98
2022-11-04T02:51:58.387Z,10.95
2022-11-04T02:52:58.378Z,10.95
2022-11-04T02:53:58.365Z,10.95
2022-11-04T02:54:58.361Z,10.94
2022-11-04T02:55:58.363Z,10.92
2022-11-04T02:56:58.348Z,10.92
2022-11-04T02:57:58.315Z,10.92
2022-11-04T02:58:58.313Z,10.89
2022-11-04T02:59:58.304Z,10.88
2022-11-04T03:00:58.380Z,10.84
2022-11-04T03:01:58.489Z,10.83
2022-11-04T03:02:58.273Z,10.84
2022-11-04T03:03:58.283Z,10.83
2022-11-04T03:04:58.243Z,10.81
2022-11-04T03:05:58.230Z,10.78
2022-11-04T03:06:58.315Z,10.80
2022-11-04T03:07:58.228Z,10.81
2022-11-04T03:08:58.204Z,10.83
2022-11-04T03:09:58.187Z,10.83
2022-11-04T03:10:58.176Z,10.86
2022-11-04T03:11:58.166Z,10.88
2022-11-04T03:12:58.175Z,10.91
2022-11-04T03:13:58.146Z,10.94
2022-11-04T03:14:58.165Z,10.95
2022-11-04T03:15:58.184Z,10.94
2022-11-04T03:16:58.140Z,10.94
2022-11-04T03:17:58.153Z,10.94
2022-11-04T03:18:58.084Z,10.95
2022-11-04T03:19:58.079Z,10.95
2022-11-04T03:20:58.073Z,10.96
2022-11-04T03:21:58.048Z,10.96
2022-11-04T03:22:58.065Z,10.94
2022-11-04T03:23:58.027Z,10.92
2022-11-04T03:24:58.026Z,10.92
2022-11-04T03:25:58.008Z,10.88
2022-11-04T03:26:58.008Z,10.86
2022-11-04T03:27:58.018Z,10.88
2022-11-04T03:28:57.976Z,10.89
2022-11-04T03:29:57.959Z,10.91
2022-11-04T03:30:57.957Z,10.92
2022-11-04T03:31:57.938Z,10.91
2022-11-04T03:32:57.930Z,10.89
2022-11-04T03:33:57.936Z,10.88
2022-11-04T03:34:57.910Z,10.91
2022-11-04T03:35:57.890Z,10.92
2022-11-04T03:36:57.897Z,10.92
2022-11-04T03:37:57.866Z,10.94
2022-11-04T03:38:57.894Z,10.95
2022-11-04T03:39:57.847Z,10.96
2022-11-04T03:40:57.847Z,10.95
2022-11-04T03:41:57.826Z,10.96
2022-11-04T03:42:57.822Z,11.01
2022-11-04T03:43:57.805Z,11.01
2022-11-04T03:44:57.815Z,11.01
2022-11-04T03:45:57.779Z,10.99
2022-11-04T03:46:57.785Z,10.99
2022-11-04T03:47:57.757Z,11.01
2022-11-04T03:48:57.748Z,11.02
2022-11-04T03:49:57.773Z,11.02
2022-11-04T03:50:57.738Z,11.03
2022-11-04T03:51:57.720Z,11.03
2022-11-04T03:52:57.709Z,11.07
2022-11-04T03:53:57.689Z,11.09
2022-11-04T03:54:57.708Z,11.09
2022-11-04T03:55:57.669Z,11.09
2022-11-04T03:56:57.672Z,11.10
2022-11-04T03:57:57.651Z,11.11
2022-11-04T03:58:57.632Z,11.11
2022-11-04T03:59:57.649Z,11.13
2022-11-04T04:00:57.654Z,11.13
2022-11-04T04:01:57.774Z,11.11
2022-11-04T04:02:57.592Z,11.10
2022-11-04T04:03:57.580Z,11.10
2022-11-04T04:04:57.600Z,11.10
2022-11-04T04:05:57.558Z,11.07
2022-11-04T04:06:57.565Z,11.09
2022-11-04T04:07:57.539Z,11.10
2022-11-04T04:08:57.522Z,11.09
2022-11-04T04:09:57.511Z,11.10
2022-11-04T04:10:57.519Z,11.10
2022-11-04T04:11:57.492Z,11.10
2022-11-04T04:12:57.488Z,11.10
2022-11-04T04:13:57.461Z,11.10
2022-11-04T04:14:57.460Z,11.10
2022-11-04T04:15:57.470Z,11.10
2022-11-04T04:16:57.503Z,11.09
2022-11-04T04:17:57.421Z,11.11
2022-11-04T04:18:58.699Z,11.10
2022-11-04T04:19:57.393Z,11.10
2022-11-04T04:20:57.395Z,11.11
2022-11-04T04:21:57.402Z,11.10
2022-11-04T04:22:57.371Z,11.11
2022-11-04T04:23:57.356Z,11.10
2022-11-04T04:24:57.348Z,11.10
2022-11-04T04:26:05.129Z,11.10
2022-11-04T04:26:57.354Z,11.10
2022-11-04T04:27:57.309Z,11.09
2022-11-04T04:28:57.304Z,11.07
2022-11-04T04:29:57.291Z,11.07
2022-11-04T04:31:00.255Z,11.07
2022-11-04T04:31:57.284Z,11.06
2022-11-04T04:32:57.258Z,11.06
2022-11-04T04:33:57.248Z,11.06
2022-11-04T04:34:57.241Z,11.07
2022-11-04T04:35:57.233Z,11.02
2022-11-04T04:36:57.253Z,11.02
2022-11-04T04:37:57.195Z,11.03
2022-11-04T04:38:57.193Z,11.06
2022-11-04T04:39:57.188Z,11.02
2022-11-04T04:41:57.182Z,11.02
2022-11-04T04:42:57.146Z,11.03
2022-11-04T04:43:57.134Z,11.03
2022-11-04T04:44:57.123Z,11.01
2022-11-04T04:45:57.120Z,10.98
2022-11-04T04:46:57.136Z,10.96
2022-11-04T04:47:57.087Z,10.95
2022-11-04T04:48:57.075Z,10.92
2022-11-04T04:49:57.062Z,10.94
2022-11-04T04:50:57.090Z,10.92
2022-11-04T04:51:57.037Z,10.91
2022-11-04T04:52:57.056Z,10.84
2022-11-04T04:53:57.015Z,10.81
2022-11-04T04:54:57.006Z,10.81
2022-11-04T04:55:56.995Z,10.81
2022-11-04T04:56:56.995Z,10.80
2022-11-04T04:57:56.968Z,10.78
2022-11-04T04:58:56.990Z,10.76
2022-11-04T04:59:56.988Z,10.77
2022-11-04T05:00:56.987Z,10.78
2022-11-04T05:01:56.992Z,10.80
2022-11-04T05:02:56.917Z,10.80
2022-11-04T05:03:56.905Z,10.81
2022-11-04T05:04:56.929Z,10.83
2022-11-04T05:05:58.768Z,10.88
2022-11-04T05:06:56.879Z,10.89
2022-11-04T05:07:56.901Z,10.91
2022-11-04T05:08:57.013Z,10.91
2022-11-04T05:09:56.927Z,10.89
2022-11-04T05:10:56.866Z,10.91
2022-11-04T05:11:56.815Z,10.91
2022-11-04T05:12:56.807Z,10.92
2022-11-04T05:13:56.807Z,10.92
2022-11-04T05:14:56.810Z,10.91
2022-11-04T05:15:56.783Z,10.91
2022-11-04T05:16:56.822Z,10.89
2022-11-04T05:17:57.027Z,10.88
2022-11-04T05:18:57.088Z,10.86
2022-11-04T05:19:57.048Z,10.88
2022-11-04T05:20:57.298Z,10.89
2022-11-04T05:21:57.092Z,10.91
2022-11-04T05:22:57.106Z,10.91
2022-11-04T05:23:57.104Z,10.91
2022-11-04T05:24:56.710Z,10.92
2022-11-04T05:25:56.729Z,10.92
2022-11-04T05:26:56.722Z,10.92
2022-11-04T05:27:56.759Z,10.91
2022-11-04T05:28:56.689Z,10.91
2022-11-04T05:29:56.630Z,10.91
2022-11-04T05:30:56.871Z,10.89
2022-11-04T05:31:56.801Z,10.92
2022-11-04T05:32:59.922Z,10.91
2022-11-04T05:33:57.631Z,10.94
2022-11-04T05:34:56.599Z,10.94
2022-11-04T05:35:56.542Z,10.94
2022-11-04T05:36:56.640Z,10.94
2022-11-04T05:37:56.567Z,10.95
2022-11-04T05:38:56.530Z,10.94
2022-11-04T05:39:56.511Z,10.94
2022-11-04T05:40:56.508Z,10.92
2022-11-04T05:41:56.515Z,10.92
2022-11-04T05:42:56.467Z,10.92
2022-11-04T05:43:56.458Z,10.94
2022-11-04T05:44:56.580Z,10.92
2022-11-04T05:45:56.601Z,10.94
2022-11-04T05:46:56.481Z,10.94
2022-11-04T05:47:56.413Z,10.94
2022-11-04T05:48:56.433Z,10.95
2022-11-04T05:49:56.381Z,10.95
2022-11-04T05:50:56.377Z,10.96
2022-11-04T05:51:56.469Z,10.95
2022-11-04T05:52:56.372Z,10.96
2022-11-04T05:53:56.491Z,10.96
2022-11-04T05:54:56.420Z,10.96
2022-11-04T05:55:56.401Z,10.92
2022-11-04T05:56:56.339Z,10.94
2022-11-04T05:57:56.342Z,10.96
2022-11-04T05:58:56.301Z,10.94
2022-11-04T05:59:56.300Z,10.92
2022-11-04T06:00:56.271Z,10.92
2022-11-04T06:01:56.549Z,10.92
2022-11-04T06:02:56.548Z,10.95
2022-11-04T06:03:56.273Z,10.94
2022-11-04T06:04:56.282Z,10.92
2022-11-04T06:05:56.237Z,10.94
2022-11-04T06:06:56.253Z,10.94
2022-11-04T06:07:56.196Z,10.91
2022-11-04T06:08:56.250Z,10.94
2022-11-04T06:09:56.235Z,10.92
2022-11-04T06:10:56.152Z,10.94
2022-11-04T06:11:56.142Z,10.94
2022-11-04T06:12:56.134Z,10.96
2022-11-04T06:13:56.152Z,10.94
2022-11-04T06:14:56.218Z,10.94
2022-11-04T06:15:56.094Z,10.92
2022-11-04T06:16:56.094Z,10.94
2022-11-04T06:17:56.101Z,10.91
2022-11-04T06:18:59.961Z,10.88
2022-11-04T06:19:57.146Z,10.89
2022-11-04T06:20:56.044Z,10.88
2022-11-04T06:21:56.032Z,10.88
2022-11-04T06:22:56.053Z,10.88
2022-11-04T06:23:56.005Z,10.88
2022-11-04T06:24:56.145Z,10.88
2022-11-04T06:25:55.986Z,10.86
2022-11-04T06:26:56.014Z,10.86
2022-11-04T06:27:55.996Z,10.86
2022-11-04T06:28:56.026Z,10.83
2022-11-04T06:29:55.973Z,10.83
2022-11-04T06:30:55.947Z,10.83
2022-11-04T06:31:56.035Z,10.81
2022-11-04T06:32:55.936Z,10.80
2022-11-04T06:33:55.970Z,10.81
2022-11-04T06:34:55.933Z,10.78
2022-11-04T06:35:55.873Z,10.80
2022-11-04T06:36:55.873Z,10.80
2022-11-04T06:37:55.855Z,10.78
2022-11-04T06:39:01.403Z,10.77
2022-11-04T06:39:56.826Z,10.77
2022-11-04T06:40:55.856Z,10.76
2022-11-04T06:41:57.938Z,10.77
2022-11-04T06:42:55.806Z,10.78
2022-11-04T06:43:55.786Z,10.78
2022-11-04T06:44:55.797Z,10.78
2022-11-04T06:45:55.825Z,10.80
2022-11-04T06:46:55.763Z,10.80
2022-11-04T06:47:55.757Z,10.80
2022-11-04T06:48:55.737Z,10.78
2022-11-04T06:49:55.895Z,10.81
2022-11-04T06:50:55.895Z,10.81
2022-11-04T06:51:55.778Z,10.81
2022-11-04T06:52:55.835Z,10.83
2022-11-04T06:53:55.786Z,10.84
2022-11-04T06:54:55.986Z,10.84
2022-11-04T06:55:56.591Z,10.83
2022-11-04T06:56:55.877Z,10.84
2022-11-04T06:57:55.678Z,10.84
2022-11-04T06:58:55.701Z,10.83
2022-11-04T06:59:55.683Z,10.83
2022-11-04T07:00:55.656Z,10.84
2022-11-04T07:01:55.833Z,10.86
2022-11-04T07:02:55.751Z,10.86
2022-11-04T07:03:55.588Z,10.88
2022-11-04T07:04:55.566Z,10.88
2022-11-04T07:05:55.638Z,10.88
2022-11-04T07:06:55.822Z,10.88
2022-11-04T07:07:55.537Z,10.89
2022-11-04T07:08:56.358Z,10.91
2022-11-04T07:09:55.491Z,10.91
2022-11-04T07:10:55.477Z,10.92
2022-11-04T07:11:55.548Z,10.92
2022-11-04T07:12:55.457Z,10.94
2022-11-04T07:13:55.478Z,10.95
2022-11-04T07:14:55.450Z,10.95
2022-11-04T07:15:55.607Z,10.95
2022-11-04T07:16:55.408Z,10.96
2022-11-04T07:17:55.406Z,10.98
2022-11-04T07:18:55.530Z,10.98
2022-11-04T07:19:55.402Z,10.99
2022-11-04T07:20:55.399Z,10.99
2022-11-04T07:21:55.369Z,11.01
2022-11-04T07:22:55.420Z,11.01
2022-11-04T07:23:55.630Z,11.03
2022-11-04T07:24:55.390Z,11.06
2022-11-04T07:25:55.340Z,11.06
2022-11-04T07:26:55.335Z,11.06
2022-11-04T07:27:58.039Z,11.07
2022-11-04T07:28:56.301Z,11.07
2022-11-04T07:29:55.281Z,11.09
2022-11-04T07:30:55.483Z,11.07
2022-11-04T07:31:55.268Z,11.07
2022-11-04T07:32:55.232Z,11.06
2022-11-04T07:33:55.289Z,11.07
2022-11-04T07:34:55.212Z,11.09
2022-11-04T07:35:58.309Z,11.07
2022-11-04T07:36:55.251Z,11.07
2022-11-04T07:37:55.273Z,11.07
2022-11-04T07:38:55.280Z,11.10
2022-11-04T07:39:55.190Z,11.11
2022-11-04T07:40:55.194Z,11.10
2022-11-04T07:41:59.254Z,11.10
2022-11-04T07:42:55.163Z,11.09
2022-11-04T07:43:55.116Z,11.10
2022-11-04T07:44:55.127Z,11.11
2022-11-04T07:45:55.093Z,11.13
2022-11-04T07:46:55.103Z,11.19
2022-11-04T07:47:55.092Z,11.21
2022-11-04T07:48:55.053Z,11.27
2022-11-04T07:49:55.123Z,11.25
2022-11-04T07:50:55.041Z,11.29
2022-11-04T07:51:55.035Z,11.31
2022-11-04T07:52:55.042Z,11.31
2022-11-04T07:53:55.039Z,11.29
2022-11-04T07:54:54.996Z,11.27
2022-11-04T07:55:54.985Z,11.28
2022-11-04T07:56:54.972Z,11.31
2022-11-04T07:57:54.966Z,11.35
2022-11-04T07:58:54.945Z,11.35
2022-11-04T07:59:54.965Z,11.35
2022-11-04T08:00:54.924Z,11.34
2022-11-04T08:01:55.066Z,11.35
2022-11-04T08:02:54.936Z,11.34
2022-11-04T08:03:54.912Z,11.31
2022-11-04T08:04:54.915Z,11.31
2022-11-04T08:05:54.875Z,11.32
2022-11-04T08:06:54.868Z,11.34
2022-11-04T08:07:54.856Z,11.34
2022-11-04T08:08:54.909Z,11.31
2022-11-04T08:09:54.855Z,11.31
2022-11-04T08:10:54.845Z,11.27
2022-11-04T08:11:54.815Z,11.27
2022-11-04T08:12:54.800Z,11.28
2022-11-04T08:13:54.792Z,11.31
2022-11-04T08:14:54.805Z,11.34
2022-11-04T08:15:54.767Z,11.36
2022-11-04T08:16:54.756Z,11.41
2022-11-04T08:17:54.746Z,11.39
2022-11-04T08:18:54.746Z,11.47
2022-11-04T08:19:54.755Z,11.52
2022-11-04T08:20:54.706Z,11.56
2022-11-04T08:21:54.758Z,11.61
2022-11-04T08:22:54.688Z,11.61
2022-11-04T08:23:54.686Z,11.59
2022-11-04T08:24:54.691Z,11.67
2022-11-04T08:25:54.669Z,11.71
2022-11-04T08:26:54.691Z,11.78
2022-11-04T08:28:00.568Z,11.82
2022-11-04T08:28:55.627Z,11.78
2022-11-04T08:29:54.627Z,11.78
2022-11-04T08:30:54.606Z,11.77
2022-11-04T08:31:54.599Z,11.77
2022-11-04T08:32:54.609Z,11.78
2022-11-04T08:33:54.574Z,11.72
2022-11-04T08:34:54.674Z,11.67
2022-11-04T08:35:54.550Z,11.70
2022-11-04T08:36:54.537Z,11.67
2022-11-04T08:37:54.558Z,11.67
2022-11-04T08:38:54.545Z,11.65
2022-11-04T08:39:54.511Z,11.62
2022-11-04T08:40:59.592Z,11.61
2022-11-04T08:41:57.254Z,11.57
2022-11-04T08:42:54.500Z,11.59
2022-11-04T08:43:54.466Z,11.57
2022-11-04T08:44:54.450Z,11.61
2022-11-04T08:45:54.454Z,11.62
2022-11-04T08:46:54.431Z,11.74
2022-11-04T08:47:54.421Z,11.86
2022-11-04T08:48:54.429Z,12.01
2022-11-04T08:49:54.390Z,12.20
2022-11-04T08:50:54.379Z,12.44
2022-11-04T08:51:54.408Z,12.56
2022-11-04T08:52:54.375Z,12.59
2022-11-04T08:53:54.962Z,12.69
2022-11-04T08:54:57.299Z,12.93
2022-11-04T08:55:54.332Z,13.17
2022-11-04T08:56:54.322Z,13.36
2022-11-04T08:57:54.331Z,13.59
2022-11-04T08:58:54.302Z,13.52
2022-11-04T08:59:54.292Z,13.41
2022-11-04T09:00:54.280Z,13.65
2022-11-04T09:01:54.308Z,13.92
2022-11-04T09:02:54.282Z,14.14
2022-11-04T09:03:54.274Z,14.47
2022-11-04T09:04:54.244Z,14.75
2022-11-04T09:05:54.230Z,14.95
2022-11-04T09:06:54.215Z,15.08
2022-11-04T09:07:54.204Z,15.28
2022-11-04T09:08:54.212Z,15.21
2022-11-04T09:09:54.186Z,15.28
2022-11-04T09:10:54.166Z,15.15
2022-11-04T09:11:54.165Z,15.09
2022-11-04T09:12:54.172Z,15.13
2022-11-04T09:13:54.152Z,15.26
2022-11-04T09:14:54.148Z,15.11
2022-11-04T09:15:54.114Z,15.01
2022-11-04T09:16:54.139Z,15.35
2022-11-04T09:17:54.092Z,15.56
2022-11-04T09:18:54.104Z,15.57
2022-11-04T09:19:54.074Z,15.54
2022-11-04T09:20:54.056Z,15.51
2022-11-04T09:21:54.056Z,15.66
2022-11-04T09:22:54.037Z,15.79
2022-11-04T09:23:54.034Z,15.85
2022-11-04T09:24:54.034Z,16.09
2022-11-04T09:25:54.004Z,16.42
2022-11-04T09:26:53.995Z,16.23
2022-11-04T09:27:53.987Z,16.34
2022-11-04T09:28:53.974Z,15.88
2022-11-04T09:29:53.987Z,15.76
2022-11-04T09:30:53.953Z,15.78
2022-11-04T09:31:53.945Z,15.82
2022-11-04T09:32:53.925Z,15.86
2022-11-04T09:33:53.924Z,15.97
2022-11-04T09:34:53.933Z,16.26
2022-11-04T09:35:53.898Z,16.50
2022-11-04T09:36:53.879Z,16.81
2022-11-04T09:37:53.877Z,16.85
2022-11-04T09:38:53.863Z,17.11
2022-11-04T09:39:54.181Z,17.38
2022-11-04T09:40:53.856Z,17.40
2022-11-04T09:41:53.827Z,17.10
2022-11-04T09:42:53.818Z,16.92
2022-11-04T09:43:53.821Z,16.93
2022-11-04T09:45:20.004Z,17.04
2022-11-04T09:45:54.805Z,16.83
2022-11-04T09:46:53.771Z,16.92
2022-11-04T09:47:53.766Z,17.11
2022-11-04T09:48:53.761Z,16.74
2022-11-04T09:49:53.746Z,16.80
2022-11-04T09:50:53.749Z,16.58
2022-11-04T09:51:55.240Z,17.00
2022-11-04T09:52:53.706Z,16.65
2022-11-04T09:53:53.701Z,16.30
2022-11-04T09:54:53.707Z,15.84
2022-11-04T09:55:53.706Z,15.63
2022-11-04T09:56:53.687Z,16.03
2022-11-04T09:57:53.718Z,15.39
2022-11-04T09:58:53.642Z,16.06
2022-11-04T09:59:53.638Z,15.97
2022-11-04T10:00:53.684Z,15.48
2022-11-04T10:01:53.687Z,15.38
2022-11-04T10:02:53.593Z,15.59
2022-11-04T10:03:53.591Z,16.09
2022-11-04T10:04:53.582Z,16.74
2022-11-04T10:05:53.593Z,16.78
2022-11-04T10:06:53.554Z,17.14
2022-11-04T10:07:53.541Z,16.18
2022-11-04T10:08:53.542Z,16.14
2022-11-04T10:09:53.524Z,16.50
2022-11-04T10:10:53.541Z,15.92
2022-11-04T10:11:53.504Z,15.42
2022-11-04T10:12:53.485Z,15.11
2022-11-04T10:13:53.487Z,14.87
2022-11-04T10:14:53.468Z,15.72
2022-11-04T10:15:53.477Z,16.09
2022-11-04T10:16:53.446Z,16.50
2022-11-04T10:17:53.434Z,16.52
2022-11-04T10:18:53.424Z,17.10
2022-11-04T10:19:53.414Z,17.70
2022-11-04T10:20:53.453Z,18.21
2022-11-04T10:21:53.405Z,18.59
2022-11-04T10:22:53.385Z,18.68
2022-11-04T10:23:53.375Z,18.98
2022-11-04T10:24:53.373Z,18.52
2022-11-04T10:25:53.347Z,17.40
2022-11-04T10:26:57.616Z,17.55
2022-11-04T10:27:54.325Z,16.92
2022-11-04T10:28:53.324Z,16.65
2022-11-04T10:29:53.297Z,16.41
2022-11-04T10:30:53.299Z,15.81
2022-11-04T10:31:53.322Z,16.25
2022-11-04T10:32:53.282Z,16.99
2022-11-04T10:33:53.259Z,17.53
2022-11-04T10:34:53.244Z,18.19
2022-11-04T10:35:53.238Z,18.67
2022-11-04T10:36:53.274Z,18.87
2022-11-04T10:37:53.217Z,19.50
2022-11-04T10:38:53.200Z,20.02
2022-11-04T10:39:53.198Z,19.65
2022-11-04T10:40:53.182Z,19.55
2022-11-04T10:41:53.183Z,19.54
2022-11-04T10:42:53.180Z,19.47
2022-11-04T10:43:53.150Z,19.66
2022-11-04T10:44:53.129Z,19.43
2022-11-04T10:45:53.128Z,18.50
2022-11-04T10:46:53.111Z,17.47
2022-11-04T10:47:53.127Z,17.28
2022-11-04T10:48:53.101Z,16.93
2022-11-04T10:50:21.996Z,16.90
2022-11-04T10:50:54.069Z,17.69
2022-11-04T10:51:53.060Z,17.26
2022-11-04T10:52:53.102Z,17.06
2022-11-04T10:53:53.122Z,16.49
2022-11-04T10:54:53.031Z,16.14
2022-11-04T10:55:53.022Z,16.70
2022-11-04T10:56:53.061Z,17.43
2022-11-04T10:57:52.999Z,18.02
2022-11-04T10:58:53.001Z,18.13
2022-11-04T10:59:52.973Z,17.73
2022-11-04T11:00:53.011Z,17.40
2022-11-04T11:01:53.109Z,17.46
2022-11-04T11:02:52.934Z,17.22
2022-11-04T11:03:52.999Z,16.37
2022-11-04T11:04:52.915Z,16.88
2022-11-04T11:05:52.917Z,16.89
2022-11-04T11:06:52.894Z,16.04
2022-11-04T11:07:52.894Z,15.63
2022-11-04T11:08:52.901Z,15.81
2022-11-04T11:09:54.351Z,16.96
2022-11-04T11:10:52.862Z,17.64
2022-11-04T11:11:52.847Z,17.64
2022-11-04T11:12:52.839Z,17.97
2022-11-04T11:13:52.853Z,18.58
2022-11-04T11:14:52.806Z,19.14
2022-11-04T11:15:52.805Z,19.20
2022-11-04T11:16:52.797Z,19.73
2022-11-04T11:17:52.778Z,20.13
2022-11-04T11:18:52.798Z,20.56
2022-11-04T11:19:52.756Z,20.16
2022-11-04T11:20:52.786Z,20.51
2022-11-04T11:21:52.741Z,21.02
2022-11-04T11:22:52.732Z,21.61
2022-11-04T11:23:52.710Z,21.88
2022-11-04T11:24:52.748Z,21.56
2022-11-04T11:25:52.709Z,21.91
2022-11-04T11:26:52.687Z,21.67
2022-11-04T11:28:00.468Z,21.59
2022-11-04T11:28:58.429Z,21.57
2022-11-04T11:29:53.649Z,21.02
2022-11-04T11:30:52.659Z,20.41
2022-11-04T11:31:52.622Z,20.24
2022-11-04T11:32:52.621Z,19.88
2022-11-04T11:33:52.632Z,20.13
2022-11-04T11:34:52.591Z,20.86
2022-11-04T11:35:52.600Z,21.59
2022-11-04T11:36:52.573Z,22.22
2022-11-04T11:37:52.573Z,22.14
2022-11-04T11:38:52.551Z,22.68
2022-11-04T11:39:52.534Z,22.38
2022-11-04T11:41:22.863Z,21.74
2022-11-04T11:41:53.727Z,21.81
2022-11-04T11:42:52.512Z,22.20
2022-11-04T11:43:52.505Z,21.29
2022-11-04T11:44:52.584Z,21.35
2022-11-04T11:45:52.486Z,21.21
2022-11-04T11:46:52.505Z,20.93
2022-11-04T11:47:52.449Z,20.34
2022-11-04T11:48:52.474Z,20.59
2022-11-04T11:49:52.429Z,20.81
2022-11-04T11:50:52.471Z,21.11
2022-11-04T11:51:52.407Z,20.91
2022-11-04T11:52:52.405Z,20.61
2022-11-04T11:53:52.389Z,19.25
2022-11-04T11:54:52.380Z,18.04
2022-11-04T11:55:52.409Z,18.12
2022-11-04T11:57:12.601Z,18.65
2022-11-04T12:00:59.115Z,18.34
2022-11-04T12:01:53.394Z,19.39
2022-11-04T12:02:52.471Z,19.80
2022-11-04T12:09:53.210Z,21.02
2022-11-04T12:10:52.647Z,21.27
2022-11-04T12:11:52.207Z,20.96
2022-11-04T12:12:52.200Z,20.83
2022-11-04T12:13:52.191Z,19.88
2022-11-04T12:14:52.160Z,19.97
2022-11-04T12:15:52.141Z,20.42
2022-11-04T12:16:52.142Z,20.66
2022-11-04T12:17:52.142Z,20.35
2022-11-04T12:18:52.113Z,20.12
2022-11-04T12:19:52.104Z,19.33
2022-11-04T12:20:52.095Z,18.74
2022-11-04T12:21:52.084Z,18.50
2022-11-04T12:22:52.073Z,19.05
2022-11-04T12:23:52.092Z,19.97
2022-11-04T12:24:52.054Z,20.35
2022-11-04T12:25:52.044Z,20.69
2022-11-04T12:26:52.034Z,19.46
2022-11-04T12:27:52.010Z,18.33
2022-11-04T12:28:52.024Z,17.92
2022-11-04T12:29:51.987Z,17.71
2022-11-04T12:30:52.040Z,17.20
2022-11-04T12:31:51.966Z,16.98
2022-11-04T12:32:51.958Z,16.67
2022-11-04T12:33:51.975Z,16.26
2022-11-04T12:34:51.941Z,15.85
2022-11-04T12:35:51.926Z,15.63
2022-11-04T12:36:51.915Z,15.49
2022-11-04T12:37:52.001Z,15.17
2022-11-04T12:38:51.905Z,15.24
2022-11-04T12:39:51.908Z,15.78
2022-11-04T12:41:18.676Z,15.52
2022-11-04T12:42:19.553Z,15.17
2022-11-04T12:42:52.850Z,14.99
2022-11-04T12:43:51.840Z,15.46
2022-11-04T12:44:51.848Z,16.71
2022-11-04T12:45:51.839Z,17.62
2022-11-04T12:46:51.829Z,18.36
2022-11-04T12:47:51.797Z,18.79
2022-11-04T12:48:56.854Z,18.95
2022-11-04T12:49:52.773Z,19.46
2022-11-04T12:50:51.961Z,20.05
2022-11-04T12:51:51.753Z,19.86
2022-11-04T12:52:51.740Z,19.23
2022-11-04T12:53:51.731Z,20.20
2022-11-04T12:54:51.721Z,20.96
2022-11-04T12:55:51.737Z,19.83
2022-11-04T12:56:51.742Z,18.65
2022-11-04T12:57:51.705Z,17.85
2022-11-04T12:58:51.694Z,17.06
2022-11-04T12:59:51.665Z,16.70
2022-11-04T13:00:51.723Z,17.48
2022-11-04T13:01:51.723Z,18.57